Phillipsport, New York
Current Conditions -  °F | °C
As of 3:54 AM on Friday 19 Dec 2014 (Local Time) from KMGJ Reporting Station
Overcast Overcast  
Wind Chill: -2°   Ceiling: 3300
Heat Index:   Visibility: 10mi
Dew Point: -5°   Wind: 9mph
Humidity: 61%   Direction: 320°NW
Pressure: 29.94"   Gusts: NA
Location:  41.65°N, 74.44°W
Report Text: KMGJ 190854Z AUTO 32008KT 10SM OVC033 02/M05 A2994 RMK AO2 SLP144 T00171050 50000 TSNO
Loading
Personal Weather Stations






























Interactive Weather Map New forecast layout! Learn more

10-Day Weather Forecast

Advertisements
Track Severe Weather on mobile